createdAt,value
2019-02-25T00:00:58.306Z,46.50
2019-02-25T00:03:27.880Z,46.50
2019-02-25T00:05:56.956Z,46.40
2019-02-25T00:08:25.966Z,45.80
2019-02-25T00:10:54.695Z,45.80
2019-02-25T00:13:23.759Z,46.40
2019-02-25T00:15:52.713Z,46.80
2019-02-25T00:18:22.069Z,47.00
2019-02-25T00:20:51.480Z,47.00
2019-02-25T00:23:20.759Z,47.10
2019-02-25T00:25:50.070Z,47.20
2019-02-25T00:28:19.137Z,47.00
2019-02-25T00:30:48.161Z,47.10
2019-02-25T00:33:17.642Z,47.30
2019-02-25T00:35:46.761Z,47.30
2019-02-25T00:38:16.377Z,47.30
2019-02-25T00:40:45.812Z,46.90
2019-02-25T00:43:14.867Z,47.30
2019-02-25T00:45:44.035Z,47.20
2019-02-25T00:48:13.296Z,47.10
2019-02-25T00:50:42.544Z,47.20
2019-02-25T00:53:11.919Z,47.20
2019-02-25T00:55:41.232Z,47.30
2019-02-25T00:58:10.146Z,47.60
2019-02-25T01:00:39.827Z,47.90
2019-02-25T01:03:08.846Z,49.30
2019-02-25T01:05:38.459Z,49.10
2019-02-25T01:08:07.995Z,49.20
2019-02-25T01:10:37.385Z,50.20
2019-02-25T01:13:06.943Z,49.80
2019-02-25T01:15:36.124Z,49.60
2019-02-25T01:18:05.010Z,49.60
2019-02-25T01:20:33.852Z,49.90
2019-02-25T01:23:02.564Z,49.90
2019-02-25T01:25:31.358Z,50.10
2019-02-25T01:28:00.543Z,50.20
2019-02-25T01:30:29.266Z,50.70
2019-02-25T01:32:58.230Z,51.30
2019-02-25T01:35:27.136Z,51.30
2019-02-25T01:37:56.520Z,51.80
2019-02-25T01:40:25.624Z,52.10
2019-02-25T01:42:54.865Z,52.10
2019-02-25T01:45:23.978Z,52.40
2019-02-25T01:47:53.095Z,51.70
2019-02-25T01:50:21.956Z,51.70
2019-02-25T01:52:50.752Z,51.90
2019-02-25T01:55:19.907Z,51.80
2019-02-25T01:57:49.015Z,51.70
2019-02-25T02:00:18.182Z,51.70
2019-02-25T02:02:47.376Z,51.90
2019-02-25T02:05:16.463Z,51.80
2019-02-25T02:07:45.413Z,51.60
2019-02-25T02:10:14.905Z,51.70
2019-02-25T02:12:43.917Z,51.60
2019-02-25T02:15:16.184Z,51.40
2019-02-25T02:17:45.594Z,51.60
2019-02-25T02:20:15.865Z,51.60
2019-02-25T02:22:44.886Z,51.60
2019-02-25T02:25:14.105Z,51.50
2019-02-25T02:27:43.697Z,51.50
2019-02-25T02:30:15.440Z,51.40
2019-02-25T02:32:44.418Z,51.40
2019-02-25T02:35:13.554Z,51.30
2019-02-25T02:37:42.775Z,51.40
2019-02-25T02:40:12.280Z,51.30
2019-02-25T02:42:43.011Z,52.00
2019-02-25T02:45:31.825Z,51.30
2019-02-25T02:48:19.618Z,51.30
2019-02-25T02:50:48.747Z,51.60
2019-02-25T02:53:17.731Z,51.70
2019-02-25T02:55:46.883Z,51.60
2019-02-25T02:58:15.823Z,51.30
2019-02-25T03:00:44.820Z,51.20
2019-02-25T03:03:13.824Z,51.00
2019-02-25T03:05:42.976Z,50.90
2019-02-25T03:08:12.212Z,50.60
2019-02-25T03:10:41.534Z,50.60
2019-02-25T03:13:10.693Z,50.70
2019-02-25T03:15:39.846Z,50.80
2019-02-25T03:18:08.720Z,50.70
2019-02-25T03:20:38.531Z,50.90
2019-02-25T03:23:08.135Z,51.00
2019-02-25T03:25:37.364Z,51.10
2019-02-25T03:28:06.706Z,51.10
2019-02-25T03:30:36.550Z,51.20
2019-02-25T03:33:05.864Z,51.50
2019-02-25T03:35:35.581Z,51.60
2019-02-25T03:38:05.196Z,51.80
2019-02-25T03:40:34.690Z,51.60
2019-02-25T03:43:03.717Z,52.80
2019-02-25T03:45:32.993Z,52.40
2019-02-25T03:48:02.229Z,52.50
2019-02-25T03:50:31.403Z,51.20
2019-02-25T03:53:01.234Z,49.00
2019-02-25T03:55:31.111Z,50.50
2019-02-25T03:58:00.319Z,51.10
2019-02-25T04:00:29.274Z,52.40
2019-02-25T04:02:58.711Z,53.50
2019-02-25T04:05:27.710Z,54.90
2019-02-25T04:07:56.727Z,56.20
2019-02-25T04:10:25.765Z,57.10
2019-02-25T04:12:54.746Z,57.10
2019-02-25T04:15:27.125Z,57.00
2019-02-25T04:17:55.935Z,56.90
2019-02-25T04:20:24.648Z,56.90
2019-02-25T04:22:53.724Z,56.60
2019-02-25T04:25:22.459Z,55.90
2019-02-25T04:27:51.209Z,55.30
2019-02-25T04:30:20.310Z,54.50
2019-02-25T04:32:49.042Z,53.80
2019-02-25T04:35:18.074Z,53.40
2019-02-25T04:37:46.802Z,53.30
2019-02-25T04:40:15.958Z,53.30
2019-02-25T04:42:44.756Z,53.00
2019-02-25T04:45:15.498Z,53.10
2019-02-25T04:47:44.303Z,53.10
2019-02-25T04:50:13.641Z,52.70
2019-02-25T04:52:42.470Z,52.80
2019-02-25T04:55:11.588Z,52.30
2019-02-25T04:57:40.337Z,52.70
2019-02-25T05:00:12.093Z,52.70
2019-02-25T05:02:40.917Z,52.90
2019-02-25T05:05:10.106Z,53.20
2019-02-25T05:07:38.832Z,53.70
2019-02-25T05:10:09.195Z,54.20
2019-02-25T05:12:38.933Z,54.30
2019-02-25T05:15:08.479Z,54.00
2019-02-25T05:17:37.210Z,54.00
2019-02-25T05:20:06.143Z,53.70
2019-02-25T05:22:37.471Z,53.30
2019-02-25T05:25:06.227Z,53.20
2019-02-25T05:27:34.952Z,53.10
2019-02-25T05:30:04.222Z,52.80
2019-02-25T05:32:32.951Z,52.80
2019-02-25T05:35:01.682Z,52.50
2019-02-25T05:37:30.434Z,52.40
2019-02-25T05:39:59.182Z,52.50
2019-02-25T05:42:28.206Z,52.80
2019-02-25T05:44:56.946Z,53.20
2019-02-25T05:47:26.236Z,53.10
2019-02-25T05:49:55.230Z,53.40
2019-02-25T05:52:23.984Z,54.20
2019-02-25T05:54:52.697Z,53.70
2019-02-25T05:57:21.477Z,53.80
2019-02-25T05:59:51.099Z,53.90
2019-02-25T06:02:20.090Z,54.10
2019-02-25T06:04:49.086Z,53.90
2019-02-25T06:07:17.825Z,53.90
2019-02-25T06:09:46.577Z,54.40
2019-02-25T06:12:15.655Z,53.70
2019-02-25T06:14:44.644Z,53.80
2019-02-25T06:17:13.734Z,53.70
2019-02-25T06:19:43.258Z,53.90
2019-02-25T06:22:12.061Z,54.70
2019-02-25T06:24:41.134Z,55.10
2019-02-25T06:27:10.235Z,55.10
2019-02-25T06:29:39.282Z,55.40
2019-02-25T06:32:08.027Z,55.50
2019-02-25T06:34:36.791Z,55.80
2019-02-25T06:37:05.523Z,55.50
2019-02-25T06:39:34.604Z,55.60
2019-02-25T06:42:03.373Z,55.30
2019-02-25T06:44:32.104Z,55.10
2019-02-25T06:47:01.443Z,54.90
2019-02-25T06:49:30.180Z,54.80
2019-02-25T06:51:59.208Z,54.60
2019-02-25T06:54:27.940Z,54.40
2019-02-25T06:56:57.023Z,54.20
2019-02-25T06:59:25.756Z,53.80
2019-02-25T07:01:54.483Z,53.50
2019-02-25T07:04:31.314Z,53.70
2019-02-25T07:07:06.721Z,53.60
2019-02-25T07:10:07.119Z,53.50
2019-02-25T07:12:49.748Z,53.80
2019-02-25T07:15:55.970Z,52.50
2019-02-25T07:18:58.979Z,53.90
2019-02-25T07:21:40.460Z,54.50
2019-02-25T07:24:22.669Z,53.50
2019-02-25T07:27:01.065Z,53.30
2019-02-25T07:29:49.528Z,54.40
2019-02-25T07:32:43.238Z,54.70
2019-02-25T07:35:33.883Z,56.30
2019-02-25T07:38:14.568Z,56.10
2019-02-25T07:41:08.661Z,56.20
2019-02-25T07:43:49.301Z,54.90
2019-02-25T07:46:30.982Z,54.30
2019-02-25T07:49:13.505Z,53.90
2019-02-25T07:52:08.638Z,53.00
2019-02-25T07:54:55.242Z,52.60
2019-02-25T07:57:55.216Z,53.60
2019-02-25T08:00:32.844Z,53.50
2019-02-25T08:03:18.119Z,52.90
2019-02-25T08:06:21.434Z,53.20
2019-02-25T08:09:07.903Z,53.50
2019-02-25T08:11:48.446Z,52.60
2019-02-25T08:14:36.041Z,52.20
2019-02-25T08:17:12.266Z,51.40
2019-02-25T08:20:06.301Z,52.00
2019-02-25T08:22:41.778Z,52.00
2019-02-25T08:25:42.055Z,51.50
2019-02-25T08:28:29.042Z,52.00
2019-02-25T08:31:09.069Z,50.70
2019-02-25T08:33:55.617Z,50.20
2019-02-25T08:37:26.711Z,49.60
2019-02-25T08:40:40.379Z,50.40
2019-02-25T08:43:25.330Z,50.40
2019-02-25T08:45:59.994Z,50.10
2019-02-25T08:48:35.939Z,48.80
2019-02-25T08:51:05.055Z,48.90
2019-02-25T08:53:33.823Z,49.00
2019-02-25T08:56:02.573Z,47.80
2019-02-25T08:58:31.326Z,48.50
2019-02-25T09:01:00.383Z,47.80
2019-02-25T09:03:29.374Z,47.50
2019-02-25T09:05:58.499Z,47.10
2019-02-25T09:08:27.257Z,46.60
2019-02-25T09:10:56.021Z,46.60
2019-02-25T09:13:24.743Z,46.50
2019-02-25T09:15:53.483Z,46.30
2019-02-25T09:18:22.509Z,45.90
2019-02-25T09:20:51.249Z,45.70
2019-02-25T09:23:20.011Z,45.90
2019-02-25T09:25:48.774Z,45.40
2019-02-25T09:28:17.538Z,45.70
2019-02-25T09:30:46.339Z,46.00
2019-02-25T09:33:15.133Z,46.10
2019-02-25T09:35:43.871Z,47.10
2019-02-25T09:38:12.623Z,47.60
2019-02-25T09:40:41.562Z,48.40
2019-02-25T09:43:10.309Z,48.90
2019-02-25T09:45:39.069Z,48.70
2019-02-25T09:48:07.887Z,48.00
2019-02-25T09:50:36.958Z,48.30
2019-02-25T09:53:07.385Z,48.70
2019-02-25T09:55:36.301Z,48.30
2019-02-25T09:58:05.258Z,49.50
2019-02-25T10:00:34.374Z,50.20
2019-02-25T10:03:03.111Z,50.90
2019-02-25T10:05:31.962Z,51.20
2019-02-25T10:08:01.007Z,50.60
2019-02-25T10:10:30.043Z,50.10
2019-02-25T10:12:58.773Z,48.60
2019-02-25T10:15:27.719Z,48.30
2019-02-25T10:17:56.458Z,48.00
2019-02-25T10:20:25.297Z,46.20
2019-02-25T10:22:54.024Z,46.10
2019-02-25T10:25:22.773Z,45.30
2019-02-25T10:27:51.528Z,44.90
2019-02-25T10:30:20.387Z,41.60
2019-02-25T10:32:49.153Z,36.40
2019-02-25T10:35:18.225Z,32.00
2019-02-25T10:37:47.052Z,33.40
2019-02-25T10:40:17.775Z,34.40
2019-02-25T10:42:46.985Z,35.30
2019-02-25T10:45:16.550Z,35.00
2019-02-25T10:47:46.769Z,35.30
2019-02-25T10:50:16.684Z,32.20
2019-02-25T10:52:47.631Z,32.90
2019-02-25T10:55:20.909Z,32.70
2019-02-25T10:57:49.974Z,31.90
2019-02-25T11:00:19.109Z,32.20
2019-02-25T11:02:49.484Z,31.00
2019-02-25T11:05:19.087Z,30.60
2019-02-25T11:07:49.670Z,31.90
2019-02-25T11:10:38.011Z,31.30
2019-02-25T11:13:06.991Z,30.60
2019-02-25T11:15:37.492Z,31.10
2019-02-25T11:18:08.347Z,30.30
2019-02-25T11:20:37.874Z,30.80
2019-02-25T11:23:07.597Z,31.10
2019-02-25T11:25:36.362Z,32.30
2019-02-25T11:28:07.614Z,32.30
2019-02-25T11:30:36.320Z,32.50
2019-02-25T11:33:05.211Z,33.30
2019-02-25T11:35:34.364Z,32.40
2019-02-25T11:38:04.211Z,32.20
2019-02-25T11:40:34.098Z,32.50
2019-02-25T11:43:03.932Z,32.80
2019-02-25T11:45:32.939Z,31.70
2019-02-25T11:48:01.975Z,31.30
2019-02-25T11:50:30.948Z,31.90
2019-02-25T11:53:00.057Z,30.70
2019-02-25T11:55:28.940Z,32.00
2019-02-25T11:57:57.668Z,32.00
2019-02-25T12:00:26.530Z,30.50
2019-02-25T12:02:55.565Z,30.50
2019-02-25T12:05:24.388Z,30.10
2019-02-25T12:07:53.453Z,30.10
2019-02-25T12:10:22.274Z,29.60
2019-02-25T12:12:51.330Z,29.50
2019-02-25T12:15:20.545Z,29.50
2019-02-25T12:17:49.625Z,29.10
2019-02-25T12:20:18.657Z,28.40
2019-02-25T12:22:47.410Z,28.90
2019-02-25T12:25:16.262Z,28.80
2019-02-25T12:27:45.015Z,27.70
2019-02-25T12:30:16.030Z,26.90
2019-02-25T12:32:45.124Z,26.40
2019-02-25T12:35:13.942Z,26.40
2019-02-25T12:37:43.095Z,27.00
2019-02-25T12:40:12.659Z,26.20
2019-02-25T12:42:41.724Z,29.10
2019-02-25T12:45:10.838Z,29.30
2019-02-25T12:47:39.998Z,29.30
2019-02-25T12:50:09.969Z,28.80
2019-02-25T12:52:39.106Z,28.50
2019-02-25T12:55:09.357Z,28.90
2019-02-25T12:57:38.102Z,28.00
2019-02-25T13:00:09.599Z,27.90
2019-02-25T13:02:38.660Z,27.70
2019-02-25T13:05:08.686Z,28.00
2019-02-25T13:07:38.032Z,27.50
2019-02-25T13:10:08.548Z,27.70
2019-02-25T13:12:37.619Z,27.60
2019-02-25T13:15:13.394Z,29.00
2019-02-25T13:17:37.691Z,29.00
2019-02-25T13:20:06.775Z,29.10
2019-02-25T13:22:36.393Z,26.10
2019-02-25T13:25:08.044Z,27.80
2019-02-25T13:27:38.455Z,28.00
2019-02-25T13:30:10.521Z,27.90
2019-02-25T13:32:39.567Z,29.30
2019-02-25T13:35:09.031Z,29.90
2019-02-25T13:37:38.276Z,29.10
2019-02-25T13:40:08.267Z,29.40
2019-02-25T13:42:37.006Z,29.30
2019-02-25T13:45:06.845Z,31.20
2019-02-25T13:47:36.345Z,31.20
2019-02-25T13:50:05.707Z,31.50
2019-02-25T13:52:34.804Z,31.90
2019-02-25T13:55:04.145Z,32.40
2019-02-25T13:57:32.954Z,33.80
2019-02-25T14:00:02.098Z,33.90
2019-02-25T14:02:30.897Z,34.10
2019-02-25T14:04:59.909Z,33.00
2019-02-25T14:07:28.749Z,33.30
2019-02-25T14:09:57.493Z,33.70
2019-02-25T14:12:26.313Z,33.90
2019-02-25T14:14:55.437Z,32.90
2019-02-25T14:17:26.363Z,33.00
2019-02-25T14:19:55.386Z,33.50
2019-02-25T14:22:24.206Z,33.80
2019-02-25T14:24:53.857Z,33.10
2019-02-25T14:27:22.682Z,33.70
2019-02-25T14:29:51.962Z,32.90
2019-02-25T14:32:21.037Z,33.50
2019-02-25T14:34:50.569Z,33.20
2019-02-25T14:37:21.718Z,32.90
2019-02-25T14:39:53.739Z,32.70
2019-02-25T14:42:23.759Z,32.80
2019-02-25T14:44:54.438Z,32.60
2019-02-25T14:47:30.015Z,32.90
2019-02-25T14:49:53.471Z,33.10
2019-02-25T14:52:24.280Z,33.00
2019-02-25T14:54:52.834Z,33.30
2019-02-25T14:57:21.618Z,33.90
2019-02-25T14:59:50.808Z,33.70
2019-02-25T15:02:19.880Z,34.20
2019-02-25T15:04:49.026Z,34.90
2019-02-25T15:07:18.030Z,35.20
2019-02-25T15:09:46.851Z,34.80
2019-02-25T15:12:15.945Z,35.60
2019-02-25T15:14:45.038Z,34.40
2019-02-25T15:17:14.870Z,34.50
2019-02-25T15:19:43.896Z,34.90
2019-02-25T15:22:13.192Z,34.70
2019-02-25T15:24:44.172Z,34.90
2019-02-25T15:27:13.268Z,35.10
2019-02-25T15:29:44.513Z,35.40
2019-02-25T15:32:13.253Z,35.10
2019-02-25T15:34:42.465Z,33.90
2019-02-25T15:37:11.889Z,34.40
2019-02-25T15:39:42.545Z,34.50
2019-02-25T15:42:11.998Z,32.40
2019-02-25T15:44:42.307Z,32.70
2019-02-25T15:47:13.418Z,32.10
2019-02-25T15:49:42.089Z,32.40
2019-02-25T15:52:14.652Z,32.10
2019-02-25T15:54:43.232Z,32.00
2019-02-25T15:57:12.505Z,32.00
2019-02-25T15:59:41.330Z,32.70
2019-02-25T16:02:14.185Z,33.10
2019-02-25T16:04:42.441Z,33.10
2019-02-25T16:07:11.726Z,33.00
2019-02-25T16:09:40.930Z,33.40
2019-02-25T16:12:09.926Z,33.10
2019-02-25T16:14:39.262Z,34.40
2019-02-25T16:17:08.650Z,35.00
2019-02-25T16:19:46.449Z,35.10
2019-02-25T16:22:09.727Z,35.20
2019-02-25T16:24:39.202Z,35.10
2019-02-25T16:27:08.059Z,35.30
2019-02-25T16:29:37.213Z,35.40
2019-02-25T16:32:06.116Z,35.10
2019-02-25T16:34:36.162Z,35.20
2019-02-25T16:37:05.711Z,35.00
2019-02-25T16:39:34.823Z,35.20
2019-02-25T16:42:04.009Z,35.00
2019-02-25T16:44:33.102Z,35.10
2019-02-25T16:47:01.892Z,35.10
2019-02-25T16:49:31.785Z,35.10
2019-02-25T16:52:02.204Z,34.80
2019-02-25T16:54:31.539Z,35.60
2019-02-25T16:57:00.461Z,35.80
2019-02-25T16:59:29.637Z,35.80
2019-02-25T17:02:00.038Z,35.80
2019-02-25T17:04:31.690Z,36.10
2019-02-25T17:07:00.282Z,36.10
2019-02-25T17:09:31.784Z,36.40
2019-02-25T17:12:02.312Z,36.80
2019-02-25T17:14:31.792Z,36.70
2019-02-25T17:17:01.117Z,37.00
2019-02-25T17:19:30.669Z,37.30
2019-02-25T17:22:02.403Z,37.30
2019-02-25T17:24:32.527Z,37.70
2019-02-25T17:27:02.024Z,38.10
2019-02-25T17:29:34.188Z,37.80
2019-02-25T17:32:04.312Z,37.70
2019-02-25T17:34:34.476Z,37.90
2019-02-25T17:37:06.003Z,38.00
2019-02-25T17:39:35.944Z,38.00
2019-02-25T17:42:08.141Z,38.00
2019-02-25T17:44:38.605Z,38.30
2019-02-25T17:47:08.793Z,38.30
2019-02-25T17:49:38.942Z,38.40
2019-02-25T17:52:09.168Z,38.40
2019-02-25T17:54:39.913Z,38.50
2019-02-25T17:57:09.819Z,39.10
2019-02-25T17:59:39.301Z,38.40
2019-02-25T18:02:10.062Z,38.80
2019-02-25T18:04:38.935Z,38.00
2019-02-25T18:07:07.826Z,38.00
2019-02-25T18:09:38.026Z,37.90
2019-02-25T18:12:08.575Z,38.10
2019-02-25T18:14:38.933Z,37.90
2019-02-25T18:17:10.347Z,37.80
2019-02-25T18:19:41.811Z,37.70
2019-02-25T18:22:11.635Z,37.70
2019-02-25T18:24:43.295Z,37.90
2019-02-25T18:27:12.284Z,37.60
2019-02-25T18:29:43.971Z,37.40
2019-02-25T18:32:12.741Z,37.50
2019-02-25T18:34:41.851Z,37.80
2019-02-25T18:37:11.404Z,37.60
2019-02-25T18:39:43.235Z,37.30
2019-02-25T18:42:13.841Z,37.40
2019-02-25T18:44:44.450Z,37.40
2019-02-25T18:47:13.778Z,39.10
2019-02-25T18:49:42.525Z,39.60
2019-02-25T18:52:11.497Z,39.20
2019-02-25T18:54:41.264Z,38.80
2019-02-25T18:57:11.871Z,37.90
2019-02-25T18:59:40.761Z,37.00
2019-02-25T19:02:10.300Z,36.90
2019-02-25T19:04:41.368Z,36.70
2019-02-25T19:07:11.402Z,37.10
2019-02-25T19:09:43.049Z,36.70
2019-02-25T19:12:11.702Z,36.60
2019-02-25T19:14:40.868Z,36.70
2019-02-25T19:17:09.928Z,36.30
2019-02-25T19:19:40.227Z,36.30
2019-02-25T19:22:10.872Z,36.40
2019-02-25T19:24:42.246Z,36.50
2019-02-25T19:27:12.847Z,36.50
2019-02-25T19:29:45.060Z,36.80
2019-02-25T19:32:14.690Z,37.30
2019-02-25T19:34:43.474Z,37.60
2019-02-25T19:37:14.350Z,38.00
2019-02-25T19:39:44.511Z,37.80
2019-02-25T19:42:15.394Z,38.80
2019-02-25T19:44:45.655Z,39.40
2019-02-25T19:47:16.872Z,39.80
2019-02-25T19:49:46.030Z,40.20
2019-02-25T19:52:16.818Z,40.50
2019-02-25T19:54:46.419Z,40.80
2019-02-25T19:57:18.200Z,41.20
2019-02-25T19:59:50.198Z,41.60
2019-02-25T20:02:17.506Z,41.80
2019-02-25T20:04:49.472Z,42.10
2019-02-25T20:07:18.550Z,42.00
2019-02-25T20:09:47.394Z,42.30
2019-02-25T20:12:16.396Z,42.60
2019-02-25T20:14:47.027Z,42.90
2019-02-25T20:17:16.990Z,43.00
2019-02-25T20:19:48.414Z,43.20
2019-02-25T20:22:18.443Z,43.20
2019-02-25T20:24:48.253Z,43.40
2019-02-25T20:27:18.116Z,43.60
2019-02-25T20:29:47.928Z,43.70
2019-02-25T20:32:18.453Z,43.80
2019-02-25T20:34:48.400Z,43.90
2019-02-25T20:37:18.947Z,44.10
2019-02-25T20:39:49.646Z,44.10
2019-02-25T20:42:21.758Z,44.20
2019-02-25T20:44:52.882Z,44.50
2019-02-25T20:47:20.214Z,44.80
2019-02-25T20:49:51.499Z,45.10
2019-02-25T20:52:22.150Z,45.30
2019-02-25T20:54:50.832Z,45.50
2019-02-25T20:57:19.589Z,45.80
2019-02-25T20:59:48.826Z,45.80
2019-02-25T21:02:18.794Z,45.90
2019-02-25T21:04:50.167Z,46.30
2019-02-25T21:07:19.077Z,46.60
2019-02-25T21:09:49.877Z,46.80
2019-02-25T21:12:20.181Z,47.00
2019-02-25T21:14:49.060Z,47.60
2019-02-25T21:17:17.813Z,47.50
2019-02-25T21:19:46.917Z,47.50
2019-02-25T21:22:15.915Z,47.40
2019-02-25T21:24:44.690Z,47.50
2019-02-25T21:27:13.453Z,47.20
2019-02-25T21:29:42.206Z,46.80
2019-02-25T21:32:15.091Z,46.00
2019-02-25T21:34:41.763Z,45.10
2019-02-25T21:37:10.540Z,45.10
2019-02-25T21:39:40.848Z,45.30
2019-02-25T21:42:12.601Z,45.50
2019-02-25T21:44:40.875Z,46.50
2019-02-25T21:47:09.697Z,45.40
2019-02-25T21:49:40.419Z,44.90
2019-02-25T21:52:10.834Z,43.70
2019-02-25T21:54:39.670Z,43.20
2019-02-25T21:57:09.713Z,42.10
2019-02-25T21:59:41.047Z,41.80
2019-02-25T22:02:09.456Z,41.40
2019-02-25T22:04:42.444Z,41.40
2019-02-25T22:07:09.054Z,41.10
2019-02-25T22:09:41.340Z,41.10
2019-02-25T22:12:08.578Z,41.10
2019-02-25T22:14:37.622Z,41.70
2019-02-25T22:17:06.629Z,42.00
2019-02-25T22:19:37.467Z,42.60
2019-02-25T22:22:07.116Z,43.20
2019-02-25T22:24:38.208Z,43.60
2019-02-25T22:27:06.900Z,44.00
2019-02-25T22:29:36.981Z,44.50
2019-02-25T22:32:08.629Z,44.70
2019-02-25T22:34:37.003Z,45.40
2019-02-25T22:37:07.840Z,46.10
2019-02-25T22:39:36.802Z,46.70
2019-02-25T22:42:07.329Z,47.40
2019-02-25T22:44:36.087Z,48.10
2019-02-25T22:47:07.177Z,48.50
2019-02-25T22:49:35.654Z,48.80
2019-02-25T22:52:05.762Z,49.10
2019-02-25T22:54:37.047Z,49.40
2019-02-25T22:57:05.676Z,49.10
2019-02-25T22:59:35.526Z,48.90
2019-02-25T23:02:04.833Z,48.60
2019-02-25T23:04:33.569Z,48.40
2019-02-25T23:07:02.317Z,48.20
2019-02-25T23:09:31.753Z,47.90
2019-02-25T23:12:00.812Z,48.00
2019-02-25T23:14:31.902Z,47.40
2019-02-25T23:17:04.599Z,47.20
2019-02-25T23:19:31.426Z,47.30
2019-02-25T23:22:00.753Z,46.70
2019-02-25T23:24:30.536Z,46.90
2019-02-25T23:26:59.955Z,46.50
2019-02-25T23:29:28.737Z,46.30
2019-02-25T23:32:01.765Z,46.20
2019-02-25T23:34:28.339Z,46.20
2019-02-25T23:36:57.116Z,46.10
2019-02-25T23:39:25.882Z,46.20
2019-02-25T23:41:54.653Z,46.30
2019-02-25T23:44:24.640Z,46.20
2019-02-25T23:46:57.631Z,45.80
2019-02-25T23:49:27.214Z,45.60
2019-02-25T23:51:55.050Z,46.20
2019-02-25T23:54:26.063Z,46.10
2019-02-25T23:56:57.072Z,45.80
2019-02-25T23:59:26.557Z,45.70
